createdAt,value
2023-01-09T00:00:54.435Z,24.30
2023-01-09T00:03:21.747Z,26.38
2023-01-09T00:05:49.001Z,33.20
2023-01-09T00:08:16.437Z,20.17
2023-01-09T00:10:43.615Z,20.30
2023-01-09T00:13:10.835Z,13.35
2023-01-09T00:15:37.982Z,19.98
2023-01-09T00:18:05.194Z,23.17
2023-01-09T00:20:32.439Z,14.85
2023-01-09T00:22:59.671Z,28.67
2023-01-09T00:25:26.848Z,16.60
2023-01-09T00:27:54.127Z,17.63
2023-01-09T00:30:21.332Z,10.68
2023-01-09T00:32:48.771Z,14.23
2023-01-09T00:35:15.960Z,9.68
2023-01-09T00:37:43.201Z,5.32
2023-01-09T00:40:10.400Z,12.48
2023-01-09T00:42:37.656Z,18.65
2023-01-09T00:45:04.928Z,7.57
2023-01-09T00:47:32.233Z,10.50
2023-01-09T00:50:00.696Z,9.88
2023-01-09T00:52:27.932Z,9.18
2023-01-09T00:54:55.249Z,14.60
2023-01-09T00:57:22.791Z,8.70
2023-01-09T00:59:49.995Z,9.25
2023-01-09T01:02:17.427Z,9.57
2023-01-09T01:05:03.667Z,8.15
2023-01-09T01:07:40.336Z,10.80
2023-01-09T01:10:07.617Z,9.15
2023-01-09T01:12:34.860Z,7.82
2023-01-09T01:15:02.126Z,13.30
2023-01-09T01:17:29.302Z,10.68
2023-01-09T01:19:56.598Z,19.05
2023-01-09T01:22:23.871Z,9.25
2023-01-09T01:24:51.135Z,8.25
2023-01-09T01:27:18.415Z,9.43
2023-01-09T01:29:45.718Z,10.85
2023-01-09T01:32:13.211Z,5.57
2023-01-09T01:34:40.489Z,12.40
2023-01-09T01:37:07.710Z,8.93
2023-01-09T01:39:34.987Z,7.70
2023-01-09T01:42:02.215Z,11.45
2023-01-09T01:44:29.391Z,6.22
2023-01-09T01:46:56.683Z,5.70
2023-01-09T01:49:23.857Z,6.13
2023-01-09T01:51:51.210Z,10.75
2023-01-09T01:54:18.435Z,14.18
2023-01-09T01:56:45.655Z,5.72
2023-01-09T01:59:12.874Z,11.57
2023-01-09T02:01:41.804Z,13.43
2023-01-09T02:04:09.148Z,6.45
2023-01-09T02:06:36.387Z,15.15
2023-01-09T02:09:03.665Z,18.92
2023-01-09T02:11:30.846Z,11.57
2023-01-09T02:13:58.100Z,16.77
2023-01-09T02:16:25.384Z,10.57
2023-01-09T02:18:54.099Z,10.57
2023-01-09T02:21:21.333Z,5.85
2023-01-09T02:23:48.599Z,5.53
2023-01-09T02:26:15.764Z,10.23
2023-01-09T02:28:43.005Z,9.82
2023-01-09T02:31:10.308Z,10.55
2023-01-09T02:33:37.553Z,4.38
2023-01-09T02:36:04.757Z,8.35
2023-01-09T02:38:32.030Z,8.90
2023-01-09T02:40:59.219Z,6.72
2023-01-09T02:43:26.501Z,13.30
2023-01-09T02:45:53.734Z,8.13
2023-01-09T02:48:21.026Z,6.93
2023-01-09T02:50:48.367Z,4.95
2023-01-09T02:53:15.659Z,6.35
2023-01-09T02:55:42.865Z,7.90
2023-01-09T02:58:10.131Z,8.02
2023-01-09T03:00:37.460Z,5.55
2023-01-09T03:03:04.754Z,6.38
2023-01-09T03:05:32.131Z,5.78
2023-01-09T03:07:59.449Z,11.20
2023-01-09T03:10:26.631Z,8.60
2023-01-09T03:12:54.377Z,13.63
2023-01-09T03:15:21.565Z,9.32
2023-01-09T03:17:48.863Z,8.40
2023-01-09T03:20:16.066Z,5.95
2023-01-09T03:22:43.374Z,8.07
2023-01-09T03:25:10.577Z,13.30
2023-01-09T03:27:37.795Z,10.85
2023-01-09T03:30:05.003Z,6.35
2023-01-09T03:32:32.202Z,9.50
2023-01-09T03:35:01.503Z,3.17
2023-01-09T03:37:28.746Z,6.55
2023-01-09T03:39:55.917Z,4.70
2023-01-09T03:42:23.358Z,13.48
2023-01-09T03:44:52.081Z,8.88
2023-01-09T03:47:19.297Z,10.82
2023-01-09T03:49:46.450Z,11.70
2023-01-09T03:52:14.125Z,11.30
2023-01-09T03:54:41.393Z,7.43
2023-01-09T03:57:08.640Z,10.63
2023-01-09T03:59:35.869Z,25.88
2023-01-09T04:02:04.179Z,8.88
2023-01-09T04:04:31.435Z,21.17
2023-01-09T04:06:58.702Z,8.20
2023-01-09T04:09:25.913Z,13.02
2023-01-09T04:11:53.178Z,8.15
2023-01-09T04:14:20.388Z,14.07
2023-01-09T04:16:47.676Z,14.20
2023-01-09T04:19:14.928Z,20.55
2023-01-09T04:21:42.136Z,19.35
2023-01-09T04:24:09.326Z,21.30
2023-01-09T04:26:36.636Z,26.58
2023-01-09T04:29:03.871Z,12.77
2023-01-09T04:31:31.094Z,20.70
2023-01-09T04:33:58.323Z,17.17
2023-01-09T04:36:25.843Z,17.23
2023-01-09T04:38:53.004Z,11.70
2023-01-09T04:41:46.743Z,18.48
2023-01-09T04:44:14.004Z,16.17
2023-01-09T04:46:41.235Z,15.55
2023-01-09T04:49:08.503Z,23.50
2023-01-09T04:51:35.700Z,23.75
2023-01-09T04:54:02.926Z,15.38
2023-01-09T04:56:30.133Z,17.33
2023-01-09T04:58:57.442Z,23.85
2023-01-09T05:01:24.758Z,19.40
2023-01-09T05:03:52.086Z,32.92
2023-01-09T05:06:19.377Z,17.10
2023-01-09T05:08:46.614Z,14.65
2023-01-09T05:11:13.833Z,17.95
2023-01-09T05:13:41.086Z,12.20
2023-01-09T05:16:08.280Z,19.27
2023-01-09T05:18:35.554Z,16.05
2023-01-09T05:21:02.778Z,18.20
2023-01-09T05:23:30.009Z,20.27
2023-01-09T05:25:57.185Z,29.20
2023-01-09T05:28:24.431Z,22.50
2023-01-09T05:30:51.673Z,17.17
2023-01-09T05:33:18.934Z,23.15
2023-01-09T05:35:46.096Z,17.17
2023-01-09T05:38:13.374Z,16.63
2023-01-09T05:40:40.792Z,17.88
2023-01-09T05:43:08.063Z,21.50
2023-01-09T05:45:35.323Z,29.40
2023-01-09T05:48:02.629Z,16.58
2023-01-09T05:50:29.826Z,21.00
2023-01-09T05:52:57.057Z,19.08
2023-01-09T05:55:24.282Z,25.42
2023-01-09T05:57:51.539Z,24.63
2023-01-09T06:00:18.740Z,11.98
2023-01-09T06:02:46.473Z,15.15
2023-01-09T06:05:13.880Z,18.75
2023-01-09T06:07:41.207Z,14.60
2023-01-09T06:10:08.437Z,32.40
2023-01-09T06:12:35.680Z,18.90
2023-01-09T06:15:02.945Z,21.33
2023-01-09T06:17:30.240Z,28.30
2023-01-09T06:19:57.681Z,28.90
2023-01-09T06:22:24.965Z,17.77
2023-01-09T06:24:52.211Z,23.85
2023-01-09T06:27:19.488Z,17.05
2023-01-09T06:29:46.824Z,23.27
2023-01-09T06:32:14.158Z,16.55
2023-01-09T06:34:41.458Z,16.20
2023-01-09T06:37:08.806Z,17.17
2023-01-09T06:39:36.023Z,24.08
2023-01-09T06:42:03.336Z,25.52
2023-01-09T06:44:30.539Z,18.27
2023-01-09T06:46:57.879Z,24.77
2023-01-09T06:49:25.124Z,20.33
2023-01-09T06:51:52.499Z,14.48
2023-01-09T06:54:19.764Z,25.20
2023-01-09T06:56:47.013Z,31.45
2023-01-09T06:59:14.294Z,14.02
2023-01-09T07:01:41.673Z,23.33
2023-01-09T07:04:10.784Z,24.95
2023-01-09T07:06:38.156Z,17.55
2023-01-09T07:09:08.396Z,19.48
2023-01-09T07:11:35.726Z,20.42
2023-01-09T07:14:02.997Z,27.23
2023-01-09T07:16:30.343Z,28.13
2023-01-09T07:18:57.563Z,24.48
2023-01-09T07:21:27.921Z,25.70
2023-01-09T07:23:55.142Z,17.50
2023-01-09T07:26:22.599Z,19.33
2023-01-09T07:28:49.879Z,18.52
2023-01-09T07:31:17.244Z,31.58
2023-01-09T07:33:44.473Z,24.60
2023-01-09T07:36:11.857Z,20.63
2023-01-09T07:38:39.815Z,18.38
2023-01-09T07:41:07.073Z,19.15
2023-01-09T07:43:34.308Z,18.65
2023-01-09T07:46:01.692Z,25.88
2023-01-09T07:48:29.111Z,21.27
2023-01-09T07:50:56.409Z,18.27
2023-01-09T07:53:23.702Z,27.90
2023-01-09T07:55:51.119Z,31.80
2023-01-09T07:58:18.395Z,38.83
2023-01-09T08:00:45.642Z,18.63
2023-01-09T08:03:13.048Z,30.65
2023-01-09T08:05:40.574Z,24.23
2023-01-09T08:08:08.127Z,25.42
2023-01-09T08:10:35.472Z,23.45
2023-01-09T08:13:02.747Z,37.50
2023-01-09T08:15:30.954Z,31.85
2023-01-09T08:17:58.307Z,29.08
2023-01-09T08:20:25.817Z,22.08
2023-01-09T08:22:54.358Z,33.90
2023-01-09T08:25:21.627Z,19.08
2023-01-09T08:27:48.880Z,24.58
2023-01-09T08:30:16.200Z,18.23
2023-01-09T08:32:43.433Z,26.02
2023-01-09T08:35:10.744Z,28.33
2023-01-09T08:37:37.953Z,21.23
2023-01-09T08:40:05.202Z,25.23
2023-01-09T08:42:51.294Z,23.08
2023-01-09T08:45:37.220Z,15.98
2023-01-09T08:48:04.500Z,24.88
2023-01-09T08:50:31.732Z,23.98
2023-01-09T08:52:58.947Z,20.10
2023-01-09T08:55:26.198Z,28.35
2023-01-09T08:57:53.446Z,15.88
2023-01-09T09:00:20.704Z,27.70
2023-01-09T09:02:48.078Z,14.75
2023-01-09T09:05:15.386Z,18.80
2023-01-09T09:07:42.947Z,16.92
2023-01-09T09:10:10.320Z,16.95
2023-01-09T09:12:37.567Z,25.45
2023-01-09T09:15:16.357Z,25.25
2023-01-09T09:17:44.524Z,13.20
2023-01-09T09:20:11.988Z,15.32
2023-01-09T09:22:39.311Z,23.20
2023-01-09T09:25:06.590Z,12.05
2023-01-09T09:27:36.215Z,18.27
2023-01-09T09:30:03.522Z,16.65
2023-01-09T09:32:30.710Z,21.08
2023-01-09T09:34:58.000Z,10.02
2023-01-09T09:37:25.387Z,18.70
2023-01-09T09:39:52.680Z,9.23
2023-01-09T09:42:38.907Z,17.20
2023-01-09T09:45:06.204Z,24.40
2023-01-09T09:47:33.499Z,12.40
2023-01-09T09:50:00.773Z,15.00
2023-01-09T09:52:27.949Z,18.83
2023-01-09T09:54:55.183Z,16.13
2023-01-09T09:57:22.415Z,9.98
2023-01-09T09:59:51.561Z,16.20
2023-01-09T10:02:18.944Z,16.70
2023-01-09T10:04:46.264Z,9.63
2023-01-09T10:07:13.600Z,15.73
2023-01-09T10:09:40.789Z,9.65
2023-01-09T10:12:08.263Z,20.83
2023-01-09T10:14:35.468Z,21.27
2023-01-09T10:17:03.475Z,16.88
2023-01-09T10:19:30.716Z,14.13
2023-01-09T10:21:58.003Z,13.40
2023-01-09T10:24:25.290Z,12.75
2023-01-09T10:26:52.812Z,12.63
2023-01-09T10:29:20.115Z,14.15
2023-01-09T10:31:47.383Z,18.73
2023-01-09T10:34:14.793Z,7.50
2023-01-09T10:36:42.059Z,7.90
2023-01-09T10:39:09.333Z,12.80
2023-01-09T10:41:36.700Z,15.32
2023-01-09T10:44:04.292Z,13.40
2023-01-09T10:46:31.563Z,5.35
2023-01-09T10:48:59.134Z,6.63
2023-01-09T10:51:26.305Z,13.02
2023-01-09T10:53:53.702Z,10.90
2023-01-09T10:56:20.991Z,7.68
2023-01-09T10:58:49.386Z,5.85
2023-01-09T11:01:16.704Z,9.20
2023-01-09T11:03:44.039Z,12.73
2023-01-09T11:06:11.351Z,10.23
2023-01-09T11:08:40.267Z,9.48
2023-01-09T11:11:07.633Z,7.47
2023-01-09T11:13:34.851Z,9.95
2023-01-09T11:16:02.194Z,11.32
2023-01-09T11:18:29.460Z,12.43
2023-01-09T11:20:57.090Z,4.68
2023-01-09T11:23:24.286Z,9.32
2023-01-09T11:25:51.523Z,8.85
2023-01-09T11:28:18.769Z,6.30
2023-01-09T11:30:45.975Z,7.68
2023-01-09T11:33:13.220Z,5.55
2023-01-09T11:35:40.451Z,10.27
2023-01-09T11:38:08.101Z,6.50
2023-01-09T11:40:35.584Z,8.55
2023-01-09T11:43:02.854Z,6.18
2023-01-09T11:45:30.072Z,8.05
2023-01-09T11:47:57.443Z,6.30
2023-01-09T11:50:25.040Z,7.82
2023-01-09T11:52:52.432Z,3.40
2023-01-09T11:55:19.667Z,7.90
2023-01-09T11:57:46.972Z,4.93
2023-01-09T12:00:14.245Z,7.45
2023-01-09T12:02:41.716Z,8.13
2023-01-09T12:05:09.016Z,8.25
2023-01-09T12:07:37.066Z,7.30
2023-01-09T12:10:04.314Z,5.05
2023-01-09T12:12:32.036Z,5.93
2023-01-09T12:14:59.259Z,4.78
2023-01-09T12:17:26.499Z,5.68
2023-01-09T12:19:53.726Z,10.90
2023-01-09T12:22:21.131Z,2.90
2023-01-09T12:24:48.448Z,7.38
2023-01-09T12:27:17.343Z,4.55
2023-01-09T12:29:44.727Z,5.68
2023-01-09T12:32:11.979Z,10.38
2023-01-09T12:34:39.196Z,6.30
2023-01-09T12:37:06.460Z,7.28
2023-01-09T12:39:33.669Z,7.35
2023-01-09T12:42:00.961Z,11.45
2023-01-09T12:44:35.583Z,10.85
2023-01-09T12:47:03.609Z,6.55
2023-01-09T12:49:30.831Z,10.45
2023-01-09T12:52:01.193Z,8.20
2023-01-09T12:54:28.643Z,8.50
2023-01-09T12:56:56.141Z,5.88
2023-01-09T12:59:30.073Z,3.08
2023-01-09T13:01:57.505Z,5.30
2023-01-09T13:04:24.687Z,7.55
2023-01-09T13:06:51.974Z,10.57
2023-01-09T13:09:19.295Z,7.78
2023-01-09T13:11:46.960Z,10.05
2023-01-09T13:14:14.311Z,6.78
2023-01-09T13:16:41.970Z,7.18
2023-01-09T13:19:09.347Z,13.82
2023-01-09T13:21:36.856Z,14.48
2023-01-09T13:24:04.149Z,10.18
2023-01-09T13:26:31.446Z,12.45
2023-01-09T13:29:00.781Z,9.65
2023-01-09T13:31:28.389Z,13.63
2023-01-09T13:33:55.625Z,7.03
2023-01-09T13:36:22.961Z,17.75
2023-01-09T13:38:50.135Z,10.90
2023-01-09T13:41:36.139Z,4.45
2023-01-09T13:44:03.414Z,10.43
2023-01-09T13:46:30.664Z,17.88
2023-01-09T13:48:58.042Z,18.52
2023-01-09T13:51:25.365Z,10.63
2023-01-09T13:53:53.034Z,11.25
2023-01-09T13:56:23.703Z,15.52
2023-01-09T13:58:51.570Z,10.68
2023-01-09T14:01:18.824Z,11.75
2023-01-09T14:03:46.130Z,17.88
2023-01-09T14:06:13.467Z,13.32
2023-01-09T14:08:42.004Z,17.65
2023-01-09T14:11:09.367Z,8.20
2023-01-09T14:13:36.838Z,8.82
2023-01-09T14:16:04.111Z,11.68
2023-01-09T14:18:31.425Z,6.13
2023-01-09T14:20:58.929Z,11.43
2023-01-09T14:26:13.477Z,21.63
2023-01-09T14:28:40.669Z,16.85
2023-01-09T14:31:08.134Z,11.68
2023-01-09T14:33:36.008Z,11.55
2023-01-09T14:36:03.260Z,20.70
2023-01-09T14:38:30.458Z,16.85
2023-01-09T14:40:57.730Z,19.00
2023-01-09T14:43:25.210Z,14.95
2023-01-09T14:45:52.514Z,7.93
2023-01-09T14:48:21.909Z,8.60
2023-01-09T14:50:51.123Z,10.68
2023-01-09T14:53:18.736Z,7.32
2023-01-09T14:55:45.982Z,17.05
2023-01-09T14:58:13.611Z,17.20
2023-01-09T15:00:41.184Z,20.05
2023-01-09T15:03:08.633Z,21.10
2023-01-09T15:05:35.911Z,24.83
2023-01-09T15:08:03.216Z,12.10
2023-01-09T15:10:30.508Z,9.77
2023-01-09T15:12:57.741Z,14.45
2023-01-09T15:15:25.016Z,15.73
2023-01-09T15:17:52.279Z,13.75
2023-01-09T15:20:19.588Z,17.83
2023-01-09T15:22:46.893Z,13.57
2023-01-09T15:25:14.091Z,13.20
2023-01-09T15:27:41.353Z,10.60
2023-01-09T15:30:08.630Z,18.88
2023-01-09T15:32:35.943Z,8.02
2023-01-09T15:35:03.199Z,10.02
2023-01-09T15:37:30.501Z,10.07
2023-01-09T15:39:57.701Z,16.67
2023-01-09T15:42:43.696Z,11.27
2023-01-09T15:45:10.966Z,10.05
2023-01-09T15:47:38.194Z,10.55
2023-01-09T15:50:05.747Z,15.65
2023-01-09T15:52:33.003Z,14.85
2023-01-09T15:55:00.334Z,9.15
2023-01-09T15:57:27.821Z,11.55
2023-01-09T15:59:55.152Z,24.88
2023-01-09T16:02:41.221Z,11.57
2023-01-09T16:05:08.669Z,10.05
2023-01-09T16:07:35.930Z,10.95
2023-01-09T16:10:03.282Z,24.05
2023-01-09T16:12:30.550Z,16.17
2023-01-09T16:14:57.773Z,21.63
2023-01-09T16:17:26.589Z,18.90
2023-01-09T16:19:54.004Z,17.48
2023-01-09T16:22:21.242Z,13.52
2023-01-09T16:24:48.668Z,11.77
2023-01-09T16:27:15.943Z,19.88
2023-01-09T16:29:43.310Z,20.08
2023-01-09T16:32:10.573Z,12.27
2023-01-09T16:34:37.943Z,14.35
2023-01-09T16:37:05.317Z,17.55
2023-01-09T16:39:32.606Z,19.77
2023-01-09T16:42:18.766Z,21.30
2023-01-09T16:44:46.011Z,16.05
2023-01-09T16:47:13.264Z,18.95
2023-01-09T16:49:40.613Z,11.43
2023-01-09T16:52:08.133Z,21.63
2023-01-09T16:54:35.542Z,25.33
2023-01-09T16:57:02.906Z,18.27
2023-01-09T16:59:30.241Z,16.08
2023-01-09T17:01:57.565Z,13.43
2023-01-09T17:04:25.184Z,25.17
2023-01-09T17:06:52.369Z,9.77
2023-01-09T17:09:19.777Z,13.07
2023-01-09T17:11:47.108Z,17.23
2023-01-09T17:14:14.377Z,20.77
2023-01-09T17:16:45.710Z,22.65
2023-01-09T17:19:13.146Z,14.20
2023-01-09T17:21:40.391Z,14.07
2023-01-09T17:24:26.484Z,16.58
2023-01-09T17:27:12.607Z,12.13
2023-01-09T17:29:39.974Z,15.90
2023-01-09T17:32:07.309Z,17.80
2023-01-09T17:34:34.853Z,30.63
2023-01-09T17:37:04.291Z,23.88
2023-01-09T17:39:31.774Z,11.43
2023-01-09T17:42:01.991Z,19.52
2023-01-09T17:44:29.668Z,10.05
2023-01-09T17:46:56.840Z,12.15
2023-01-09T17:49:24.165Z,17.25
2023-01-09T17:51:51.396Z,19.95
2023-01-09T17:54:21.059Z,17.40
2023-01-09T17:56:49.208Z,13.38
2023-01-09T17:59:16.392Z,16.98
2023-01-09T18:01:43.776Z,18.30
2023-01-09T18:04:11.023Z,11.98
2023-01-09T18:06:38.327Z,14.82
2023-01-09T18:09:05.531Z,12.57
2023-01-09T18:11:32.785Z,12.68
2023-01-09T18:14:00.031Z,16.15
2023-01-09T18:16:27.421Z,12.25
2023-01-09T18:18:54.711Z,15.65
2023-01-09T18:21:22.352Z,13.73
2023-01-09T18:23:50.202Z,22.35
2023-01-09T18:26:21.152Z,10.52
2023-01-09T18:28:48.731Z,18.67
2023-01-09T18:31:17.414Z,17.88
2023-01-09T18:33:44.724Z,11.30
2023-01-09T18:36:12.025Z,21.52
2023-01-09T18:38:39.281Z,16.20
2023-01-09T18:41:06.523Z,16.63
2023-01-09T18:43:33.866Z,14.52
2023-01-09T18:46:01.058Z,12.85
2023-01-09T18:48:28.369Z,26.23
2023-01-09T18:50:55.647Z,16.27
2023-01-09T18:53:22.882Z,10.70
2023-01-09T18:55:50.111Z,16.50
2023-01-09T18:58:17.446Z,17.48
2023-01-09T19:00:46.201Z,14.90
2023-01-09T19:03:13.591Z,13.77
2023-01-09T19:05:43.154Z,16.67
2023-01-09T19:08:10.435Z,12.63
2023-01-09T19:10:40.652Z,19.48
2023-01-09T19:13:07.931Z,16.83
2023-01-09T19:15:35.207Z,12.82
2023-01-09T19:18:02.505Z,12.75
2023-01-09T19:20:29.879Z,23.50
2023-01-09T19:22:57.241Z,15.20
2023-01-09T19:25:24.555Z,12.18
2023-01-09T19:27:55.137Z,24.15
2023-01-09T19:30:22.499Z,21.90
2023-01-09T19:32:49.958Z,27.65
2023-01-09T19:35:17.668Z,12.05
2023-01-09T19:37:44.864Z,13.77
2023-01-09T19:40:12.256Z,21.60
2023-01-09T19:42:39.462Z,14.40
2023-01-09T19:45:06.748Z,15.40
2023-01-09T19:47:37.023Z,22.80
2023-01-09T19:50:05.260Z,21.20
2023-01-09T19:52:32.580Z,25.25
2023-01-09T19:55:00.359Z,17.45
2023-01-09T19:57:27.692Z,23.55
2023-01-09T19:59:54.927Z,15.45
2023-01-09T20:04:49.445Z,18.08
2023-01-09T20:07:17.230Z,18.67
2023-01-09T20:09:44.485Z,26.77
2023-01-09T20:12:11.676Z,26.10
2023-01-09T20:14:38.973Z,28.48
2023-01-09T20:17:06.223Z,22.40
2023-01-09T20:19:33.819Z,23.65
2023-01-09T20:22:01.228Z,17.75
2023-01-09T20:24:28.493Z,26.52
2023-01-09T20:26:55.732Z,25.95
2023-01-09T20:29:23.671Z,25.50
2023-01-09T20:31:52.305Z,37.72
2023-01-09T20:34:19.601Z,21.85
2023-01-09T20:36:47.406Z,24.90
2023-01-09T20:39:14.724Z,28.88
2023-01-09T20:41:42.108Z,25.90
2023-01-09T20:44:09.362Z,30.58
2023-01-09T20:46:37.077Z,16.48
2023-01-09T20:49:06.476Z,40.90
2023-01-09T20:51:33.719Z,28.23
2023-01-09T20:54:01.055Z,40.38
2023-01-09T20:56:28.464Z,41.03
2023-01-09T20:58:55.779Z,35.20
2023-01-09T21:01:23.096Z,35.83
2023-01-09T21:03:50.371Z,32.90
2023-01-09T21:06:17.743Z,28.50
2023-01-09T21:08:45.217Z,31.02
2023-01-09T21:11:12.414Z,31.77
2023-01-09T21:13:39.748Z,35.90
2023-01-09T21:16:09.633Z,32.42
2023-01-09T21:18:37.184Z,38.53
2023-01-09T21:21:04.465Z,33.08
2023-01-09T21:23:31.781Z,25.88
2023-01-09T21:25:59.703Z,37.22
2023-01-09T21:28:27.307Z,32.40
2023-01-09T21:30:54.585Z,35.83
2023-01-09T21:33:22.066Z,37.05
2023-01-09T21:35:49.358Z,31.67
2023-01-09T21:38:16.869Z,35.53
2023-01-09T21:40:44.097Z,31.23
2023-01-09T21:43:30.138Z,63.30
2023-01-09T21:46:20.347Z,37.03
2023-01-09T21:48:47.672Z,23.92
2023-01-09T21:51:14.935Z,33.22
2023-01-09T21:53:42.194Z,35.85
2023-01-09T21:56:09.386Z,30.83
2023-01-09T21:58:36.643Z,34.63
2023-01-09T22:01:03.939Z,35.78
2023-01-09T22:03:31.272Z,28.92
2023-01-09T22:05:58.534Z,30.38
2023-01-09T22:08:25.759Z,30.08
2023-01-09T22:10:52.978Z,42.70
2023-01-09T22:13:20.756Z,29.60
2023-01-09T22:15:48.769Z,49.13
2023-01-09T22:18:16.059Z,41.83
2023-01-09T22:20:43.252Z,35.67
2023-01-09T22:23:10.449Z,20.30
2023-01-09T22:25:38.072Z,51.22
2023-01-09T22:28:05.295Z,31.02
2023-01-09T22:30:32.590Z,39.05
2023-01-09T22:33:00.719Z,35.42
2023-01-09T22:35:27.948Z,40.50
2023-01-09T22:37:55.140Z,36.35
2023-01-09T22:40:22.407Z,24.48
2023-01-09T22:42:49.562Z,31.92
2023-01-09T22:45:16.901Z,38.20
2023-01-09T22:47:44.246Z,41.30
2023-01-09T22:50:11.631Z,34.97
2023-01-09T22:52:38.879Z,35.45
2023-01-09T22:55:06.216Z,34.80
2023-01-09T22:57:33.513Z,32.05
2023-01-09T23:00:00.730Z,38.70
2023-01-09T23:02:28.050Z,46.90
2023-01-09T23:04:58.278Z,41.65
2023-01-09T23:07:25.723Z,36.45
2023-01-09T23:09:56.296Z,41.90
2023-01-09T23:12:23.612Z,30.88
2023-01-09T23:14:50.913Z,58.30
2023-01-09T23:17:18.260Z,25.42
2023-01-09T23:19:45.420Z,41.17
2023-01-09T23:22:12.746Z,36.88
2023-01-09T23:24:39.973Z,33.67
2023-01-09T23:27:07.738Z,30.92
2023-01-09T23:29:38.508Z,25.40
2023-01-09T23:32:06.968Z,36.40
2023-01-09T23:34:34.275Z,44.03
2023-01-09T23:37:01.628Z,37.13
2023-01-09T23:39:29.098Z,28.30
2023-01-09T23:42:15.064Z,29.08
2023-01-09T23:44:42.342Z,22.63
2023-01-09T23:47:09.500Z,32.72
2023-01-09T23:49:36.935Z,37.30
2023-01-09T23:52:06.118Z,26.50
2023-01-09T23:54:33.528Z,36.72
2023-01-09T23:57:00.752Z,32.70
2023-01-09T23:59:28.066Z,26.65
